Afyon, Turkey

6:07 AM EEST on August 25, 2016 (GMT +0300)
Suleyman Demirel | | Change Station

Elev 2835 ft 37.86 °N, 30.37 °E | Updated 17 minutes ago

Clear
Clear
64 °F
Feels Like 64 °F
N
5
Wind Variable Wind from NNE

Today
High -- | Low -- °F
--% Chance of Precip.
Yesterday
High -- | Low -- °F
Precip. -- in
Pressure 29.89 in
Visibility -9999.0 miles
Clouds
Dew Point 55 °F
Humidity 73%
Rainfall 0.00 in
Snow Depth Not available.
6:20 AM 7:38 PM
Waning Gibbous, 50% visible
METAR LTFC 250250Z 03004KT CAVOK 18/13 Q1012 RMK RWY23 03005KT 350V050
Pressure 29.89 in
Visibility -9999.0 miles
Clouds
Dew Point 55 °F
Humidity 73%
Rainfall 0.00 in
Snow Depth Not available.
6:20 AM 7:38 PM
Waning Gibbous, 50% visible
METAR LTFC 250250Z 03004KT CAVOK 18/13 Q1012 RMK RWY23 03005KT 350V050

10-Day Weather Forecast

×

Almanac

Astronomy

Aug. 25, 2016 Rise Set
Actual Time
Civil Twilight
Nautical Twilight
Astronomical Twilight
Moon
Length of Visible Light
Length of Day
Tomorrow will be .
, % of the Moon is Illuminated

Today's Extremes

Country Highs Country Lows

Community

WunderPhotos

Upload Photos

1,934,787 photos uploaded!

WunderBlog® & News

Nearby

Air Quality

  Air Quality AQ Index Pollutant
Not available.

Snow Depth

Station Depth Elevation

Earthquake Activity

City Distance Mag. Time & Date
Minimum magnitude displayed is 2.5.

Coastal Water Temperatures

Place Temperature

Stations

Nearby Weather Stations

Station Location Temp. Windchill Dew Point Humidity Wind Precip. Elev Updated Type